메인 페이지
METAR-TAF:

METAR-TAF

공항 :

시몬 볼리바르 국제공항

카라카스, 베네수엘라

위도: 10-36N, 경도: 066-59W, 고도: 43m

현재 날씨관측

예보는 1 시간 7분 전, 07:00시(UTC)에 발표되었습니다.
무풍
온도 25°C
습도 89%
기압 1010 hPa
시정 10km 이상
고도 1600ft 상공 구름 조금

METAR: SVMI 150700Z 00000KT 9999 FEW016 25/23 Q1010

시각: 04:07 (08:07 UTC)

예보

예보는 4 시간 7분 전, 04:00시(UTC)에 발표되었습니다.
예보 대상 시간: 15일 06시부터 16일 06시까지 (UTC)
북동3kt
시정 10km 이상
고도 1600ft 상공 구름 많음
일시적
15일 06시부터 15일 10시까지 (UTC)
kt
고도 1600ft 상공 구름 보통
15일 1100시부터 (UTC)
북동3kt
시정 10km 이상
고도 1600ft 상공 구름 조금
고도 7000ft 상공 구름 보통

TAF: SVMI 150400Z 1506/1606 05003KT 9999 BKN016 TX32/18Z TN23/10Z TEMPO 1506/1510 00000KT SCT016 FM151100 05003KT 9999 FEW016 SCT070

4,000개 이상의 공항 관측 자료 및 예보 (METAR 및 TAF 보고).

지도상에서 검색 가능한 기상관측소가 노란 점과 빨간 점으로 표시되어 있습니다.

기상관측소 명을 보려면 표시 위로 마우스를 이동하세요.

날씨 관측과 예보를 보려면 클릭하세요.

지도 변경 : 확대하려면 엑스 표시가 있는 녹색 버튼, 축소하려면 빼기 표시가 있는 녹색 버튼, 다음 페이지의 지도를 보려면 녹색 화살표를 클릭하세요.


METAR-TAF: